Spring Hill, South Carolina
Current Conditions -  °F | °C
As of 2:58 AM on Wednesday 26 Nov 2014 (Local Time) from KSSC Reporting Station
Moderate Rain Moderate Rain  
Wind Chill: 54°   Ceiling: 600
Heat Index: 54°   Visibility: 7mi
Dew Point: 51°   Wind: 13mph
Humidity: 90%   Direction: 340°NNW
Pressure: 29.84"   Gusts: NA
Location:  34.1106°N, 80.4967°W
Report Text: KSSC 260758Z AUTO 34011KT 7SM R04/5500FT RA OVC006 12/11 A2984 RMK AO2 OVC V BKN SLP106 P0009 T01210105 $
Loading
Personal Weather Stations






























Interactive Weather Map New forecast layout! Learn more

10-Day Weather Forecast

Advertisements
Track Severe Weather on mobile